sensor_id;sensor_type;location;lat;lon;timestamp;temperature;humidity
62259;DHT22;48241;48.824;10.102;2023-03-23T00:01:57;14.60;53.30
62259;DHT22;48241;48.824;10.102;2023-03-23T00:04:22;14.50;53.40
62259;DHT22;48241;48.824;10.102;2023-03-23T00:06:51;14.40;53.40
62259;DHT22;48241;48.824;10.102;2023-03-23T00:09:17;14.20;55.80
62259;DHT22;48241;48.824;10.102;2023-03-23T00:11:49;14.50;53.40
62259;DHT22;48241;48.824;10.102;2023-03-23T00:14:15;14.60;54.30
62259;DHT22;48241;48.824;10.102;2023-03-23T00:16:41;14.70;54.00
62259;DHT22;48241;48.824;10.102;2023-03-23T00:19:10;14.60;53.70
62259;DHT22;48241;48.824;10.102;2023-03-23T00:21:39;14.70;52.90
62259;DHT22;48241;48.824;10.102;2023-03-23T00:26:35;14.60;55.70
62259;DHT22;48241;48.824;10.102;2023-03-23T00:29:02;14.50;55.20
62259;DHT22;48241;48.824;10.102;2023-03-23T00:31:29;14.60;55.90
62259;DHT22;48241;48.824;10.102;2023-03-23T00:33:57;14.90;55.20
62259;DHT22;48241;48.824;10.102;2023-03-23T00:36:24;14.90;53.90
62259;DHT22;48241;48.824;10.102;2023-03-23T00:38:51;14.90;55.50
62259;DHT22;48241;48.824;10.102;2023-03-23T00:41:16;14.90;54.60
62259;DHT22;48241;48.824;10.102;2023-03-23T00:43:42;14.70;57.60
62259;DHT22;48241;48.824;10.102;2023-03-23T00:46:08;14.80;59.10
62259;DHT22;48241;48.824;10.102;2023-03-23T00:48:36;14.60;55.30
62259;DHT22;48241;48.824;10.102;2023-03-23T00:51:02;14.90;56.80
62259;DHT22;48241;48.824;10.102;2023-03-23T00:53:32;14.80;59.70
62259;DHT22;48241;48.824;10.102;2023-03-23T00:55:58;14.90;58.70
62259;DHT22;48241;48.824;10.102;2023-03-23T00:58:24;14.60;59.30
62259;DHT22;48241;48.824;10.102;2023-03-23T01:00:50;14.50;61.20
62259;DHT22;48241;48.824;10.102;2023-03-23T01:03:15;14.20;62.80
62259;DHT22;48241;48.824;10.102;2023-03-23T01:05:44;14.00;62.10
62259;DHT22;48241;48.824;10.102;2023-03-23T01:08:12;13.70;71.20
62259;DHT22;48241;48.824;10.102;2023-03-23T01:10:39;13.50;70.70
62259;DHT22;48241;48.824;10.102;2023-03-23T01:13:06;13.60;68.30
62259;DHT22;48241;48.824;10.102;2023-03-23T01:15:31;13.50;70.50
62259;DHT22;48241;48.824;10.102;2023-03-23T01:17:57;13.50;71.20
62259;DHT22;48241;48.824;10.102;2023-03-23T01:20:24;13.40;72.90
62259;DHT22;48241;48.824;10.102;2023-03-23T01:22:50;13.10;72.90
62259;DHT22;48241;48.824;10.102;2023-03-23T01:25:15;13.40;74.10
62259;DHT22;48241;48.824;10.102;2023-03-23T01:27:41;13.60;71.60
62259;DHT22;48241;48.824;10.102;2023-03-23T01:30:11;13.50;72.20
62259;DHT22;48241;48.824;10.102;2023-03-23T01:32:37;13.30;73.80
62259;DHT22;48241;48.824;10.102;2023-03-23T01:35:03;13.70;72.10
62259;DHT22;48241;48.824;10.102;2023-03-23T01:37:30;13.80;73.50
62259;DHT22;48241;48.824;10.102;2023-03-23T01:39:56;14.00;69.20
62259;DHT22;48241;48.824;10.102;2023-03-23T01:42:29;13.80;70.40
62259;DHT22;48241;48.824;10.102;2023-03-23T01:47:40;13.60;70.20
62259;DHT22;48241;48.824;10.102;2023-03-23T01:50:06;14.00;66.70
62259;DHT22;48241;48.824;10.102;2023-03-23T01:52:33;14.10;69.20
62259;DHT22;48241;48.824;10.102;2023-03-23T01:54:59;14.10;69.10
62259;DHT22;48241;48.824;10.102;2023-03-23T01:57:26;14.30;67.50
62259;DHT22;48241;48.824;10.102;2023-03-23T01:59:54;14.20;66.70
62259;DHT22;48241;48.824;10.102;2023-03-23T02:02:23;14.40;66.90
62259;DHT22;48241;48.824;10.102;2023-03-23T02:04:49;14.40;66.70
62259;DHT22;48241;48.824;10.102;2023-03-23T02:07:18;14.40;66.00
62259;DHT22;48241;48.824;10.102;2023-03-23T02:09:45;14.20;69.80
62259;DHT22;48241;48.824;10.102;2023-03-23T02:12:11;14.20;66.20
62259;DHT22;48241;48.824;10.102;2023-03-23T02:14:37;14.00;68.00
62259;DHT22;48241;48.824;10.102;2023-03-23T02:17:18;14.10;68.50
62259;DHT22;48241;48.824;10.102;2023-03-23T02:30:25;13.90;68.10
62259;DHT22;48241;48.824;10.102;2023-03-23T02:35:55;14.10;64.70
62259;DHT22;48241;48.824;10.102;2023-03-23T02:38:33;14.30;65.30
62259;DHT22;48241;48.824;10.102;2023-03-23T02:41:02;14.20;63.30
62259;DHT22;48241;48.824;10.102;2023-03-23T02:43:33;14.30;64.50
62259;DHT22;48241;48.824;10.102;2023-03-23T02:46:02;14.40;64.50
62259;DHT22;48241;48.824;10.102;2023-03-23T02:48:31;14.40;65.10
62259;DHT22;48241;48.824;10.102;2023-03-23T02:50:58;14.30;66.10
62259;DHT22;48241;48.824;10.102;2023-03-23T02:53:26;14.20;66.50
62259;DHT22;48241;48.824;10.102;2023-03-23T02:55:55;14.20;63.90
62259;DHT22;48241;48.824;10.102;2023-03-23T02:58:21;14.30;63.70
62259;DHT22;48241;48.824;10.102;2023-03-23T03:00:51;14.20;61.80
62259;DHT22;48241;48.824;10.102;2023-03-23T03:03:20;14.10;61.70
62259;DHT22;48241;48.824;10.102;2023-03-23T03:06:14;14.10;62.10
62259;DHT22;48241;48.824;10.102;2023-03-23T03:08:51;14.00;66.30
62259;DHT22;48241;48.824;10.102;2023-03-23T03:11:19;14.00;67.10
62259;DHT22;48241;48.824;10.102;2023-03-23T03:13:56;14.00;67.80
62259;DHT22;48241;48.824;10.102;2023-03-23T03:16:44;13.80;64.10
62259;DHT22;48241;48.824;10.102;2023-03-23T03:19:26;13.80;69.10
62259;DHT22;48241;48.824;10.102;2023-03-23T03:21:55;13.50;68.80
62259;DHT22;48241;48.824;10.102;2023-03-23T03:24:24;13.60;65.10
62259;DHT22;48241;48.824;10.102;2023-03-23T03:26:52;13.80;69.50
62259;DHT22;48241;48.824;10.102;2023-03-23T03:29:21;14.00;67.60
62259;DHT22;48241;48.824;10.102;2023-03-23T03:31:49;13.90;62.90
62259;DHT22;48241;48.824;10.102;2023-03-23T03:34:17;13.60;64.00
62259;DHT22;48241;48.824;10.102;2023-03-23T03:36:46;13.30;62.90
62259;DHT22;48241;48.824;10.102;2023-03-23T03:39:14;13.30;63.00
62259;DHT22;48241;48.824;10.102;2023-03-23T03:41:41;13.50;64.70
62259;DHT22;48241;48.824;10.102;2023-03-23T03:44:07;13.40;63.40
62259;DHT22;48241;48.824;10.102;2023-03-23T03:46:34;13.40;65.10
62259;DHT22;48241;48.824;10.102;2023-03-23T03:49:02;13.40;65.00
62259;DHT22;48241;48.824;10.102;2023-03-23T03:51:29;13.40;64.80
62259;DHT22;48241;48.824;10.102;2023-03-23T03:53:55;13.40;63.90
62259;DHT22;48241;48.824;10.102;2023-03-23T03:56:22;13.30;62.50
62259;DHT22;48241;48.824;10.102;2023-03-23T03:58:49;13.40;64.00
62259;DHT22;48241;48.824;10.102;2023-03-23T04:01:16;13.40;62.90
62259;DHT22;48241;48.824;10.102;2023-03-23T04:03:42;13.30;65.20
62259;DHT22;48241;48.824;10.102;2023-03-23T04:06:08;13.20;65.30
62259;DHT22;48241;48.824;10.102;2023-03-23T04:08:35;13.20;64.10
62259;DHT22;48241;48.824;10.102;2023-03-23T04:11:03;13.50;64.00
62259;DHT22;48241;48.824;10.102;2023-03-23T04:13:29;13.60;63.30
62259;DHT22;48241;48.824;10.102;2023-03-23T04:15:55;13.40;63.60
62259;DHT22;48241;48.824;10.102;2023-03-23T04:18:21;13.50;65.40
62259;DHT22;48241;48.824;10.102;2023-03-23T04:20:48;13.60;63.60
62259;DHT22;48241;48.824;10.102;2023-03-23T04:23:15;13.70;65.40
62259;DHT22;48241;48.824;10.102;2023-03-23T04:25:45;13.70;63.00
62259;DHT22;48241;48.824;10.102;2023-03-23T04:28:12;14.10;62.00
62259;DHT22;48241;48.824;10.102;2023-03-23T04:30:38;14.10;62.40
62259;DHT22;48241;48.824;10.102;2023-03-23T04:33:04;14.20;61.60
62259;DHT22;48241;48.824;10.102;2023-03-23T04:35:30;14.40;60.60
62259;DHT22;48241;48.824;10.102;2023-03-23T04:37:55;14.80;60.70
62259;DHT22;48241;48.824;10.102;2023-03-23T04:40:22;14.60;58.60
62259;DHT22;48241;48.824;10.102;2023-03-23T04:42:48;14.60;60.10
62259;DHT22;48241;48.824;10.102;2023-03-23T04:45:19;14.60;59.30
62259;DHT22;48241;48.824;10.102;2023-03-23T04:47:48;14.60;59.50
62259;DHT22;48241;48.824;10.102;2023-03-23T04:50:20;14.90;58.40
62259;DHT22;48241;48.824;10.102;2023-03-23T04:52:46;14.90;58.30
62259;DHT22;48241;48.824;10.102;2023-03-23T04:55:13;14.90;58.40
62259;DHT22;48241;48.824;10.102;2023-03-23T04:57:39;14.90;58.10
62259;DHT22;48241;48.824;10.102;2023-03-23T05:00:06;15.10;57.90
62259;DHT22;48241;48.824;10.102;2023-03-23T05:02:38;15.40;56.90
62259;DHT22;48241;48.824;10.102;2023-03-23T05:05:09;15.50;56.40
62259;DHT22;48241;48.824;10.102;2023-03-23T05:07:40;15.70;56.20
62259;DHT22;48241;48.824;10.102;2023-03-23T05:10:07;15.60;56.20
62259;DHT22;48241;48.824;10.102;2023-03-23T05:12:33;15.60;55.80
62259;DHT22;48241;48.824;10.102;2023-03-23T05:14:59;15.60;56.10
62259;DHT22;48241;48.824;10.102;2023-03-23T05:17:25;15.60;58.30
62259;DHT22;48241;48.824;10.102;2023-03-23T05:19:51;15.60;56.40
62259;DHT22;48241;48.824;10.102;2023-03-23T05:22:17;15.40;56.70
62259;DHT22;48241;48.824;10.102;2023-03-23T05:25:11;15.40;56.50
62259;DHT22;48241;48.824;10.102;2023-03-23T05:27:37;15.00;57.80
62259;DHT22;48241;48.824;10.102;2023-03-23T05:30:04;15.20;57.80
62259;DHT22;48241;48.824;10.102;2023-03-23T05:32:30;15.30;57.10
62259;DHT22;48241;48.824;10.102;2023-03-23T05:34:57;15.00;58.10
62259;DHT22;48241;48.824;10.102;2023-03-23T05:37:24;14.80;58.50
62259;DHT22;48241;48.824;10.102;2023-03-23T05:39:50;15.20;57.90
62259;DHT22;48241;48.824;10.102;2023-03-23T05:42:22;15.30;57.70
62259;DHT22;48241;48.824;10.102;2023-03-23T05:44:48;15.50;56.70
62259;DHT22;48241;48.824;10.102;2023-03-23T05:47:14;15.50;58.10
62259;DHT22;48241;48.824;10.102;2023-03-23T05:49:39;15.30;56.90
62259;DHT22;48241;48.824;10.102;2023-03-23T05:52:05;15.10;59.00
62259;DHT22;48241;48.824;10.102;2023-03-23T05:54:31;14.90;58.40
62259;DHT22;48241;48.824;10.102;2023-03-23T05:56:56;14.90;59.50
62259;DHT22;48241;48.824;10.102;2023-03-23T05:59:22;15.10;58.40
62259;DHT22;48241;48.824;10.102;2023-03-23T06:01:47;15.30;58.30
62259;DHT22;48241;48.824;10.102;2023-03-23T06:04:13;15.10;58.20
62259;DHT22;48241;48.824;10.102;2023-03-23T06:06:39;15.20;57.90
62259;DHT22;48241;48.824;10.102;2023-03-23T06:09:07;15.30;57.50
62259;DHT22;48241;48.824;10.102;2023-03-23T06:11:33;15.20;58.00
62259;DHT22;48241;48.824;10.102;2023-03-23T06:13:59;15.10;58.20
62259;DHT22;48241;48.824;10.102;2023-03-23T06:16:24;15.10;58.30
62259;DHT22;48241;48.824;10.102;2023-03-23T06:18:50;15.40;57.40
62259;DHT22;48241;48.824;10.102;2023-03-23T06:21:16;15.60;57.10
62259;DHT22;48241;48.824;10.102;2023-03-23T06:23:44;15.60;57.30
62259;DHT22;48241;48.824;10.102;2023-03-23T06:26:13;15.90;56.90
62259;DHT22;48241;48.824;10.102;2023-03-23T06:28:40;15.60;57.60
62259;DHT22;48241;48.824;10.102;2023-03-23T06:31:06;15.60;57.30
62259;DHT22;48241;48.824;10.102;2023-03-23T06:33:36;15.50;57.60
62259;DHT22;48241;48.824;10.102;2023-03-23T06:36:03;15.50;58.20
62259;DHT22;48241;48.824;10.102;2023-03-23T06:38:30;15.70;57.00
62259;DHT22;48241;48.824;10.102;2023-03-23T06:40:56;15.80;57.50
62259;DHT22;48241;48.824;10.102;2023-03-23T06:43:23;15.70;57.40
62259;DHT22;48241;48.824;10.102;2023-03-23T06:45:49;15.40;58.10
62259;DHT22;48241;48.824;10.102;2023-03-23T06:48:15;15.80;57.90
62259;DHT22;48241;48.824;10.102;2023-03-23T06:50:44;16.00;57.70
62259;DHT22;48241;48.824;10.102;2023-03-23T06:53:10;15.60;57.80
62259;DHT22;48241;48.824;10.102;2023-03-23T06:55:37;15.90;57.60
62259;DHT22;48241;48.824;10.102;2023-03-23T06:58:33;16.00;56.80
62259;DHT22;48241;48.824;10.102;2023-03-23T07:01:10;15.30;58.40
62259;DHT22;48241;48.824;10.102;2023-03-23T07:04:16;15.50;58.90
62259;DHT22;48241;48.824;10.102;2023-03-23T07:06:55;16.00;57.30
62259;DHT22;48241;48.824;10.102;2023-03-23T07:09:21;16.30;56.70
62259;DHT22;48241;48.824;10.102;2023-03-23T07:11:47;16.30;57.40
62259;DHT22;48241;48.824;10.102;2023-03-23T07:14:13;16.20;56.80
62259;DHT22;48241;48.824;10.102;2023-03-23T07:16:39;16.30;57.00
62259;DHT22;48241;48.824;10.102;2023-03-23T07:19:05;16.10;57.10
62259;DHT22;48241;48.824;10.102;2023-03-23T07:21:30;16.00;57.20
62259;DHT22;48241;48.824;10.102;2023-03-23T07:23:56;16.10;57.20
62259;DHT22;48241;48.824;10.102;2023-03-23T07:26:22;16.20;57.00
62259;DHT22;48241;48.824;10.102;2023-03-23T07:28:47;16.30;56.80
62259;DHT22;48241;48.824;10.102;2023-03-23T07:31:13;16.40;56.90
62259;DHT22;48241;48.824;10.102;2023-03-23T07:33:38;16.70;57.20
62259;DHT22;48241;48.824;10.102;2023-03-23T07:36:05;16.80;56.50
62259;DHT22;48241;48.824;10.102;2023-03-23T07:38:31;16.60;56.50
62259;DHT22;48241;48.824;10.102;2023-03-23T07:40:57;16.90;56.30
62259;DHT22;48241;48.824;10.102;2023-03-23T07:43:23;16.90;56.50
62259;DHT22;48241;48.824;10.102;2023-03-23T07:45:49;17.20;56.50
62259;DHT22;48241;48.824;10.102;2023-03-23T07:48:14;17.50;55.30
62259;DHT22;48241;48.824;10.102;2023-03-23T07:50:40;17.20;56.80
62259;DHT22;48241;48.824;10.102;2023-03-23T07:53:06;17.50;56.70
62259;DHT22;48241;48.824;10.102;2023-03-23T07:55:31;17.50;57.50
62259;DHT22;48241;48.824;10.102;2023-03-23T07:57:57;17.20;56.40
62259;DHT22;48241;48.824;10.102;2023-03-23T08:00:23;16.80;59.00
62259;DHT22;48241;48.824;10.102;2023-03-23T08:02:54;16.60;59.10
62259;DHT22;48241;48.824;10.102;2023-03-23T08:05:25;16.60;59.30
62259;DHT22;48241;48.824;10.102;2023-03-23T08:07:52;16.50;59.40
62259;DHT22;48241;48.824;10.102;2023-03-23T08:10:20;16.50;59.80
62259;DHT22;48241;48.824;10.102;2023-03-23T08:12:51;16.50;60.20
62259;DHT22;48241;48.824;10.102;2023-03-23T08:15:17;17.00;58.10
62259;DHT22;48241;48.824;10.102;2023-03-23T08:17:43;17.00;57.40
62259;DHT22;48241;48.824;10.102;2023-03-23T08:20:11;17.10;57.50
62259;DHT22;48241;48.824;10.102;2023-03-23T08:22:43;16.70;58.40
62259;DHT22;48241;48.824;10.102;2023-03-23T08:25:12;17.20;57.70
62259;DHT22;48241;48.824;10.102;2023-03-23T08:27:39;17.50;57.40
62259;DHT22;48241;48.824;10.102;2023-03-23T08:30:10;17.60;56.10
62259;DHT22;48241;48.824;10.102;2023-03-23T08:32:36;17.70;56.10
62259;DHT22;48241;48.824;10.102;2023-03-23T08:35:02;17.40;56.20
62259;DHT22;48241;48.824;10.102;2023-03-23T08:37:28;17.90;56.20
62259;DHT22;48241;48.824;10.102;2023-03-23T08:39:55;18.10;55.80
62259;DHT22;48241;48.824;10.102;2023-03-23T08:42:23;18.10;54.80
62259;DHT22;48241;48.824;10.102;2023-03-23T08:44:50;18.50;55.10
62259;DHT22;48241;48.824;10.102;2023-03-23T08:47:16;18.80;53.40
62259;DHT22;48241;48.824;10.102;2023-03-23T08:49:41;18.80;53.70
62259;DHT22;48241;48.824;10.102;2023-03-23T08:52:07;18.80;54.80
62259;DHT22;48241;48.824;10.102;2023-03-23T08:54:33;19.00;52.80
62259;DHT22;48241;48.824;10.102;2023-03-23T08:57:02;19.30;52.00
62259;DHT22;48241;48.824;10.102;2023-03-23T08:59:28;19.30;51.30
62259;DHT22;48241;48.824;10.102;2023-03-23T09:01:54;19.50;52.00
62259;DHT22;48241;48.824;10.102;2023-03-23T09:04:20;19.90;51.30
62259;DHT22;48241;48.824;10.102;2023-03-23T09:06:46;20.00;50.60
62259;DHT22;48241;48.824;10.102;2023-03-23T09:09:12;20.30;50.10
62259;DHT22;48241;48.824;10.102;2023-03-23T09:11:38;20.80;49.50
62259;DHT22;48241;48.824;10.102;2023-03-23T09:14:05;21.70;47.70
62259;DHT22;48241;48.824;10.102;2023-03-23T09:16:32;22.60;46.90
62259;DHT22;48241;48.824;10.102;2023-03-23T09:18:58;23.80;45.80
62259;DHT22;48241;48.824;10.102;2023-03-23T09:21:25;23.70;44.60
62259;DHT22;48241;48.824;10.102;2023-03-23T09:23:51;23.50;44.20
62259;DHT22;48241;48.824;10.102;2023-03-23T09:26:17;23.20;45.00
62259;DHT22;48241;48.824;10.102;2023-03-23T09:28:42;22.70;44.90
62259;DHT22;48241;48.824;10.102;2023-03-23T09:31:09;22.20;46.30
62259;DHT22;48241;48.824;10.102;2023-03-23T09:33:36;21.40;47.10
62259;DHT22;48241;48.824;10.102;2023-03-23T09:36:03;21.20;47.90
62259;DHT22;48241;48.824;10.102;2023-03-23T09:38:30;20.60;47.90
62259;DHT22;48241;48.824;10.102;2023-03-23T09:44:07;19.60;51.00
62259;DHT22;48241;48.824;10.102;2023-03-23T09:46:42;19.20;52.50
62259;DHT22;48241;48.824;10.102;2023-03-23T09:49:23;19.10;53.10
62259;DHT22;48241;48.824;10.102;2023-03-23T09:51:59;19.20;53.20
62259;DHT22;48241;48.824;10.102;2023-03-23T09:54:50;19.20;53.90
62259;DHT22;48241;48.824;10.102;2023-03-23T09:57:30;19.30;53.20
62259;DHT22;48241;48.824;10.102;2023-03-23T10:00:51;19.00;53.10
62259;DHT22;48241;48.824;10.102;2023-03-23T10:02:57;18.90;53.80
62259;DHT22;48241;48.824;10.102;2023-03-23T10:05:40;18.60;54.60
62259;DHT22;48241;48.824;10.102;2023-03-23T10:08:14;18.60;54.80
62259;DHT22;48241;48.824;10.102;2023-03-23T10:15:56;19.20;54.70
62259;DHT22;48241;48.824;10.102;2023-03-23T10:18:37;19.40;53.80
62259;DHT22;48241;48.824;10.102;2023-03-23T10:21:03;19.20;54.30
62259;DHT22;48241;48.824;10.102;2023-03-23T10:26:09;20.00;54.00
62259;DHT22;48241;48.824;10.102;2023-03-23T10:28:40;20.10;52.60
62259;DHT22;48241;48.824;10.102;2023-03-23T10:40:15;19.60;54.20
62259;DHT22;48241;48.824;10.102;2023-03-23T10:42:53;19.90;53.70
62259;DHT22;48241;48.824;10.102;2023-03-23T10:45:25;20.10;53.60
62259;DHT22;48241;48.824;10.102;2023-03-23T10:50:38;19.80;54.20
62259;DHT22;48241;48.824;10.102;2023-03-23T10:53:23;19.70;55.40
62259;DHT22;48241;48.824;10.102;2023-03-23T10:55:50;19.80;54.30
62259;DHT22;48241;48.824;10.102;2023-03-23T10:58:44;19.50;54.60
62259;DHT22;48241;48.824;10.102;2023-03-23T11:01:10;19.20;55.30
62259;DHT22;48241;48.824;10.102;2023-03-23T11:03:44;19.30;55.70
62259;DHT22;48241;48.824;10.102;2023-03-23T11:06:11;18.90;55.50
62259;DHT22;48241;48.824;10.102;2023-03-23T11:08:58;18.70;57.50
62259;DHT22;48241;48.824;10.102;2023-03-23T11:11:31;18.40;57.10
62259;DHT22;48241;48.824;10.102;2023-03-23T11:14:11;18.40;57.70
62259;DHT22;48241;48.824;10.102;2023-03-23T11:16:43;18.60;58.30
62259;DHT22;48241;48.824;10.102;2023-03-23T11:19:14;19.10;57.30
62259;DHT22;48241;48.824;10.102;2023-03-23T11:21:46;19.30;57.20
62259;DHT22;48241;48.824;10.102;2023-03-23T11:24:13;19.60;57.10
62259;DHT22;48241;48.824;10.102;2023-03-23T11:26:39;19.40;56.20
62259;DHT22;48241;48.824;10.102;2023-03-23T11:29:16;19.50;55.70
62259;DHT22;48241;48.824;10.102;2023-03-23T11:31:45;19.40;55.70
62259;DHT22;48241;48.824;10.102;2023-03-23T11:34:23;19.10;57.00
62259;DHT22;48241;48.824;10.102;2023-03-23T11:37:46;19.20;57.70
62259;DHT22;48241;48.824;10.102;2023-03-23T11:42:44;19.60;55.90
62259;DHT22;48241;48.824;10.102;2023-03-23T11:47:56;19.80;55.00
62259;DHT22;48241;48.824;10.102;2023-03-23T11:50:29;19.80;55.60
62259;DHT22;48241;48.824;10.102;2023-03-23T11:58:19;20.20;54.40
62259;DHT22;48241;48.824;10.102;2023-03-23T12:00:55;20.20;55.50
62259;DHT22;48241;48.824;10.102;2023-03-23T12:03:44;20.50;55.80
62259;DHT22;48241;48.824;10.102;2023-03-23T12:06:20;20.60;56.10
62259;DHT22;48241;48.824;10.102;2023-03-23T12:12:12;21.30;55.60
62259;DHT22;48241;48.824;10.102;2023-03-23T12:14:59;21.80;54.30
62259;DHT22;48241;48.824;10.102;2023-03-23T12:23:22;21.70;53.90
62259;DHT22;48241;48.824;10.102;2023-03-23T12:29:22;21.60;53.90
62259;DHT22;48241;48.824;10.102;2023-03-23T12:31:49;21.80;54.50
62259;DHT22;48241;48.824;10.102;2023-03-23T12:34:52;22.00;54.70
62259;DHT22;48241;48.824;10.102;2023-03-23T12:40:36;22.00;54.40
62259;DHT22;48241;48.824;10.102;2023-03-23T12:49:37;22.60;52.50
62259;DHT22;48241;48.824;10.102;2023-03-23T12:54:51;22.80;51.60
62259;DHT22;48241;48.824;10.102;2023-03-23T13:05:36;22.20;51.30
62259;DHT22;48241;48.824;10.102;2023-03-23T13:08:21;22.10;51.50
62259;DHT22;48241;48.824;10.102;2023-03-23T13:10:51;21.70;52.10
62259;DHT22;48241;48.824;10.102;2023-03-23T13:13:21;21.70;51.70
62259;DHT22;48241;48.824;10.102;2023-03-23T13:16:10;21.40;51.40
62259;DHT22;48241;48.824;10.102;2023-03-23T13:21:56;21.00;53.40
62259;DHT22;48241;48.824;10.102;2023-03-23T13:24:26;21.00;53.60
62259;DHT22;48241;48.824;10.102;2023-03-23T13:26:53;21.10;53.40
62259;DHT22;48241;48.824;10.102;2023-03-23T13:29:23;21.00;54.30
62259;DHT22;48241;48.824;10.102;2023-03-23T13:31:51;21.10;54.00
62259;DHT22;48241;48.824;10.102;2023-03-23T13:34:22;21.00;54.20
62259;DHT22;48241;48.824;10.102;2023-03-23T13:37:12;20.90;54.60
62259;DHT22;48241;48.824;10.102;2023-03-23T13:39:53;20.80;54.20
62259;DHT22;48241;48.824;10.102;2023-03-23T13:42:26;20.70;54.60
62259;DHT22;48241;48.824;10.102;2023-03-23T13:45:06;21.00;54.50
62259;DHT22;48241;48.824;10.102;2023-03-23T13:47:41;21.10;54.00
62259;DHT22;48241;48.824;10.102;2023-03-23T14:03:19;21.60;52.40
62259;DHT22;48241;48.824;10.102;2023-03-23T14:05:59;21.50;52.20
62259;DHT22;48241;48.824;10.102;2023-03-23T14:10:56;21.80;52.40
62259;DHT22;48241;48.824;10.102;2023-03-23T14:13:44;21.80;50.60
62259;DHT22;48241;48.824;10.102;2023-03-23T14:16:26;21.90;51.00
62259;DHT22;48241;48.824;10.102;2023-03-23T14:18:55;21.90;50.40
62259;DHT22;48241;48.824;10.102;2023-03-23T14:21:41;21.60;50.90
62259;DHT22;48241;48.824;10.102;2023-03-23T14:24:15;21.50;51.70
62259;DHT22;48241;48.824;10.102;2023-03-23T14:26:41;21.40;51.30
62259;DHT22;48241;48.824;10.102;2023-03-23T14:29:12;21.60;51.30
62259;DHT22;48241;48.824;10.102;2023-03-23T14:31:39;21.60;51.00
62259;DHT22;48241;48.824;10.102;2023-03-23T14:34:18;21.60;50.90
62259;DHT22;48241;48.824;10.102;2023-03-23T14:36:44;21.70;50.90
62259;DHT22;48241;48.824;10.102;2023-03-23T14:39:23;21.30;50.50
62259;DHT22;48241;48.824;10.102;2023-03-23T14:41:51;20.90;51.10
62259;DHT22;48241;48.824;10.102;2023-03-23T14:44:22;21.10;51.10
62259;DHT22;48241;48.824;10.102;2023-03-23T14:46:49;21.20;50.90
62259;DHT22;48241;48.824;10.102;2023-03-23T14:49:20;21.10;50.80
62259;DHT22;48241;48.824;10.102;2023-03-23T14:51:53;21.20;51.20
62259;DHT22;48241;48.824;10.102;2023-03-23T14:54:26;21.40;51.60
62259;DHT22;48241;48.824;10.102;2023-03-23T14:56:53;21.60;51.10
62259;DHT22;48241;48.824;10.102;2023-03-23T14:59:19;21.60;50.70
62259;DHT22;48241;48.824;10.102;2023-03-23T15:01:47;21.70;51.30
62259;DHT22;48241;48.824;10.102;2023-03-23T15:04:21;21.40;50.00
62259;DHT22;48241;48.824;10.102;2023-03-23T15:06:52;21.40;51.20
62259;DHT22;48241;48.824;10.102;2023-03-23T15:09:22;21.50;50.60
62259;DHT22;48241;48.824;10.102;2023-03-23T15:11:58;20.90;50.80
62259;DHT22;48241;48.824;10.102;2023-03-23T15:14:31;20.80;51.00
62259;DHT22;48241;48.824;10.102;2023-03-23T15:16:59;21.20;50.40
62259;DHT22;48241;48.824;10.102;2023-03-23T15:19:34;21.30;50.30
62259;DHT22;48241;48.824;10.102;2023-03-23T15:22:25;21.40;49.50
62259;DHT22;48241;48.824;10.102;2023-03-23T15:24:53;21.30;50.90
62259;DHT22;48241;48.824;10.102;2023-03-23T15:27:29;20.90;50.30
62259;DHT22;48241;48.824;10.102;2023-03-23T15:29:56;21.00;51.40
62259;DHT22;48241;48.824;10.102;2023-03-23T15:32:38;21.00;51.60
62259;DHT22;48241;48.824;10.102;2023-03-23T15:35:12;20.80;51.90
62259;DHT22;48241;48.824;10.102;2023-03-23T15:37:43;20.80;52.00
62259;DHT22;48241;48.824;10.102;2023-03-23T15:40:17;20.80;52.80
62259;DHT22;48241;48.824;10.102;2023-03-23T15:42:43;20.80;52.10
62259;DHT22;48241;48.824;10.102;2023-03-23T15:47:49;20.60;52.10
62259;DHT22;48241;48.824;10.102;2023-03-23T15:50:18;20.40;52.70
62259;DHT22;48241;48.824;10.102;2023-03-23T15:56:13;20.10;52.90
62259;DHT22;48241;48.824;10.102;2023-03-23T15:59:05;20.10;52.40
62259;DHT22;48241;48.824;10.102;2023-03-23T16:01:31;19.80;53.10
62259;DHT22;48241;48.824;10.102;2023-03-23T16:04:05;19.80;53.30
62259;DHT22;48241;48.824;10.102;2023-03-23T16:06:38;19.60;53.40
62259;DHT22;48241;48.824;10.102;2023-03-23T16:09:10;19.50;53.70
62259;DHT22;48241;48.824;10.102;2023-03-23T16:11:37;19.60;53.90
62259;DHT22;48241;48.824;10.102;2023-03-23T16:14:06;19.60;54.10
62259;DHT22;48241;48.824;10.102;2023-03-23T16:16:46;19.50;53.10
62259;DHT22;48241;48.824;10.102;2023-03-23T16:19:14;19.30;54.30
62259;DHT22;48241;48.824;10.102;2023-03-23T16:21:42;19.40;53.80
62259;DHT22;48241;48.824;10.102;2023-03-23T16:24:11;19.40;54.10
62259;DHT22;48241;48.824;10.102;2023-03-23T16:26:45;19.20;55.50
62259;DHT22;48241;48.824;10.102;2023-03-23T16:29:20;19.20;55.30
62259;DHT22;48241;48.824;10.102;2023-03-23T16:31:45;19.00;55.50
62259;DHT22;48241;48.824;10.102;2023-03-23T16:34:14;18.90;56.10
62259;DHT22;48241;48.824;10.102;2023-03-23T16:36:42;19.00;55.40
62259;DHT22;48241;48.824;10.102;2023-03-23T16:39:18;19.20;55.80
62259;DHT22;48241;48.824;10.102;2023-03-23T16:41:49;19.20;55.80
62259;DHT22;48241;48.824;10.102;2023-03-23T16:44:15;18.90;58.00
62259;DHT22;48241;48.824;10.102;2023-03-23T16:46:41;19.10;55.10
62259;DHT22;48241;48.824;10.102;2023-03-23T16:49:06;18.90;57.80
62259;DHT22;48241;48.824;10.102;2023-03-23T16:51:32;18.70;57.00
62259;DHT22;48241;48.824;10.102;2023-03-23T16:53:58;18.70;57.10
62259;DHT22;48241;48.824;10.102;2023-03-23T16:56:23;18.70;57.80
62259;DHT22;48241;48.824;10.102;2023-03-23T16:58:49;18.60;59.10
62259;DHT22;48241;48.824;10.102;2023-03-23T17:01:15;18.60;58.30
62259;DHT22;48241;48.824;10.102;2023-03-23T17:03:40;18.60;56.20
62259;DHT22;48241;48.824;10.102;2023-03-23T17:06:07;18.60;58.60
62259;DHT22;48241;48.824;10.102;2023-03-23T17:08:33;18.80;59.10
62259;DHT22;48241;48.824;10.102;2023-03-23T17:10:59;18.90;56.70
62259;DHT22;48241;48.824;10.102;2023-03-23T17:13:25;19.10;57.00
62259;DHT22;48241;48.824;10.102;2023-03-23T17:15:53;18.50;58.80
62259;DHT22;48241;48.824;10.102;2023-03-23T17:18:21;18.70;59.10
62259;DHT22;48241;48.824;10.102;2023-03-23T17:20:54;18.50;59.00
62259;DHT22;48241;48.824;10.102;2023-03-23T17:23:19;18.40;58.20